sensor_id;sensor_type;location;lat;lon;timestamp;temperature;humidity
51476;DHT22;37554;50.362;7.568;2023-03-23T00:02:28;17.70;51.30
51476;DHT22;37554;50.362;7.568;2023-03-23T00:04:54;17.70;51.50
51476;DHT22;37554;50.362;7.568;2023-03-23T00:07:21;17.70;51.50
51476;DHT22;37554;50.362;7.568;2023-03-23T00:09:50;17.70;51.60
51476;DHT22;37554;50.362;7.568;2023-03-23T00:12:24;17.70;51.70
51476;DHT22;37554;50.362;7.568;2023-03-23T00:14:55;17.70;51.70
51476;DHT22;37554;50.362;7.568;2023-03-23T00:17:21;17.60;51.80
51476;DHT22;37554;50.362;7.568;2023-03-23T00:19:49;17.60;51.80
51476;DHT22;37554;50.362;7.568;2023-03-23T00:22:15;17.60;51.80
51476;DHT22;37554;50.362;7.568;2023-03-23T00:24:47;17.60;51.90
51476;DHT22;37554;50.362;7.568;2023-03-23T00:27:13;17.60;52.00
51476;DHT22;37554;50.362;7.568;2023-03-23T00:29:40;17.60;52.10
51476;DHT22;37554;50.362;7.568;2023-03-23T00:32:08;17.60;52.10
51476;DHT22;37554;50.362;7.568;2023-03-23T00:34:39;17.60;52.00
51476;DHT22;37554;50.362;7.568;2023-03-23T00:37:06;17.60;52.00
51476;DHT22;37554;50.362;7.568;2023-03-23T00:39:33;17.60;52.10
51476;DHT22;37554;50.362;7.568;2023-03-23T00:42:02;17.60;52.10
51476;DHT22;37554;50.362;7.568;2023-03-23T00:44:32;17.60;52.10
51476;DHT22;37554;50.362;7.568;2023-03-23T00:47:00;17.60;52.20
51476;DHT22;37554;50.362;7.568;2023-03-23T00:49:26;17.50;52.10
51476;DHT22;37554;50.362;7.568;2023-03-23T00:51:57;17.60;52.20
51476;DHT22;37554;50.362;7.568;2023-03-23T00:54:24;17.50;52.10
51476;DHT22;37554;50.362;7.568;2023-03-23T00:56:50;17.50;52.20
51476;DHT22;37554;50.362;7.568;2023-03-23T00:59:18;17.50;52.20
51476;DHT22;37554;50.362;7.568;2023-03-23T01:01:44;17.50;52.30
51476;DHT22;37554;50.362;7.568;2023-03-23T01:04:10;17.50;52.30
51476;DHT22;37554;50.362;7.568;2023-03-23T01:06:39;17.50;52.40
51476;DHT22;37554;50.362;7.568;2023-03-23T01:09:13;17.50;52.40
51476;DHT22;37554;50.362;7.568;2023-03-23T01:11:45;17.50;52.50
51476;DHT22;37554;50.362;7.568;2023-03-23T01:14:12;17.40;52.40
51476;DHT22;37554;50.362;7.568;2023-03-23T01:16:38;17.40;52.50
51476;DHT22;37554;50.362;7.568;2023-03-23T01:19:04;17.40;52.60
51476;DHT22;37554;50.362;7.568;2023-03-23T01:21:30;17.40;52.60
51476;DHT22;37554;50.362;7.568;2023-03-23T01:23:56;17.40;52.60
51476;DHT22;37554;50.362;7.568;2023-03-23T01:26:24;17.40;52.70
51476;DHT22;37554;50.362;7.568;2023-03-23T01:28:51;17.40;52.70
51476;DHT22;37554;50.362;7.568;2023-03-23T01:31:19;17.40;52.80
51476;DHT22;37554;50.362;7.568;2023-03-23T01:33:45;17.40;52.80
51476;DHT22;37554;50.362;7.568;2023-03-23T01:36:14;17.40;52.80
51476;DHT22;37554;50.362;7.568;2023-03-23T01:38:42;17.40;52.80
51476;DHT22;37554;50.362;7.568;2023-03-23T01:41:08;17.40;52.80
51476;DHT22;37554;50.362;7.568;2023-03-23T01:43:34;17.40;52.90
51476;DHT22;37554;50.362;7.568;2023-03-23T01:45:59;17.40;52.90
51476;DHT22;37554;50.362;7.568;2023-03-23T01:48:34;17.40;53.00
51476;DHT22;37554;50.362;7.568;2023-03-23T01:51:14;17.40;53.00
51476;DHT22;37554;50.362;7.568;2023-03-23T01:53:59;17.40;53.10
51476;DHT22;37554;50.362;7.568;2023-03-23T01:56:34;17.40;53.10
51476;DHT22;37554;50.362;7.568;2023-03-23T01:59:04;17.40;53.10
51476;DHT22;37554;50.362;7.568;2023-03-23T02:01:30;17.40;53.10
51476;DHT22;37554;50.362;7.568;2023-03-23T02:03:56;17.40;53.10
51476;DHT22;37554;50.362;7.568;2023-03-23T02:06:23;17.30;53.00
51476;DHT22;37554;50.362;7.568;2023-03-23T02:08:50;17.40;53.10
51476;DHT22;37554;50.362;7.568;2023-03-23T02:11:19;17.40;53.10
51476;DHT22;37554;50.362;7.568;2023-03-23T02:13:46;17.40;53.10
51476;DHT22;37554;50.362;7.568;2023-03-23T02:21:55;17.30;53.30
51476;DHT22;37554;50.362;7.568;2023-03-23T02:27:17;17.30;53.40
51476;DHT22;37554;50.362;7.568;2023-03-23T02:35:20;17.30;53.70
51476;DHT22;37554;50.362;7.568;2023-03-23T02:37:51;17.20;53.70
51476;DHT22;37554;50.362;7.568;2023-03-23T02:40:24;17.20;53.70
51476;DHT22;37554;50.362;7.568;2023-03-23T02:42:54;17.20;53.70
51476;DHT22;37554;50.362;7.568;2023-03-23T02:45:22;17.20;53.80
51476;DHT22;37554;50.362;7.568;2023-03-23T02:47:51;17.20;53.90
51476;DHT22;37554;50.362;7.568;2023-03-23T02:50:20;17.20;53.90
51476;DHT22;37554;50.362;7.568;2023-03-23T02:52:48;17.20;53.90
51476;DHT22;37554;50.362;7.568;2023-03-23T02:55:15;17.20;54.00
51476;DHT22;37554;50.362;7.568;2023-03-23T02:57:41;17.10;54.00
51476;DHT22;37554;50.362;7.568;2023-03-23T03:00:13;17.10;54.10
51476;DHT22;37554;50.362;7.568;2023-03-23T03:02:42;17.10;54.20
51476;DHT22;37554;50.362;7.568;2023-03-23T03:11:08;17.10;54.30
51476;DHT22;37554;50.362;7.568;2023-03-23T03:16:14;17.10;54.30
51476;DHT22;37554;50.362;7.568;2023-03-23T03:18:56;17.10;54.40
51476;DHT22;37554;50.362;7.568;2023-03-23T03:21:27;17.10;54.50
51476;DHT22;37554;50.362;7.568;2023-03-23T03:23:56;17.10;54.50
51476;DHT22;37554;50.362;7.568;2023-03-23T03:26:25;17.10;54.60
51476;DHT22;37554;50.362;7.568;2023-03-23T03:28:55;17.10;54.60
51476;DHT22;37554;50.362;7.568;2023-03-23T03:31:26;17.10;54.70
51476;DHT22;37554;50.362;7.568;2023-03-23T03:33:53;17.10;54.70
51476;DHT22;37554;50.362;7.568;2023-03-23T03:36:25;17.00;54.70
51476;DHT22;37554;50.362;7.568;2023-03-23T03:38:52;17.10;54.90
51476;DHT22;37554;50.362;7.568;2023-03-23T03:41:19;17.00;55.10
51476;DHT22;37554;50.362;7.568;2023-03-23T03:43:45;17.00;54.80
51476;DHT22;37554;50.362;7.568;2023-03-23T03:46:11;17.00;54.90
51476;DHT22;37554;50.362;7.568;2023-03-23T03:48:36;17.00;54.90
51476;DHT22;37554;50.362;7.568;2023-03-23T03:51:03;17.00;55.00
51476;DHT22;37554;50.362;7.568;2023-03-23T03:53:29;17.00;55.10
51476;DHT22;37554;50.362;7.568;2023-03-23T03:55:56;17.00;55.20
51476;DHT22;37554;50.362;7.568;2023-03-23T03:58:25;17.00;55.40
51476;DHT22;37554;50.362;7.568;2023-03-23T04:00:57;17.00;55.50
51476;DHT22;37554;50.362;7.568;2023-03-23T04:03:23;16.90;55.50
51476;DHT22;37554;50.362;7.568;2023-03-23T04:05:49;17.00;55.60
51476;DHT22;37554;50.362;7.568;2023-03-23T04:08:15;17.00;55.80
51476;DHT22;37554;50.362;7.568;2023-03-23T04:10:40;17.00;55.90
51476;DHT22;37554;50.362;7.568;2023-03-23T04:13:06;16.90;55.90
51476;DHT22;37554;50.362;7.568;2023-03-23T04:15:31;16.90;56.10
51476;DHT22;37554;50.362;7.568;2023-03-23T04:17:57;16.90;56.20
51476;DHT22;37554;50.362;7.568;2023-03-23T04:20:24;16.90;56.30
51476;DHT22;37554;50.362;7.568;2023-03-23T04:22:51;16.90;56.30
51476;DHT22;37554;50.362;7.568;2023-03-23T04:25:19;16.90;56.40
51476;DHT22;37554;50.362;7.568;2023-03-23T04:27:51;16.90;56.50
51476;DHT22;37554;50.362;7.568;2023-03-23T04:30:21;16.80;56.50
51476;DHT22;37554;50.362;7.568;2023-03-23T04:32:48;16.90;56.70
51476;DHT22;37554;50.362;7.568;2023-03-23T04:35:17;16.90;56.70
51476;DHT22;37554;50.362;7.568;2023-03-23T04:37:44;16.90;56.80
51476;DHT22;37554;50.362;7.568;2023-03-23T04:40:10;16.90;56.90
51476;DHT22;37554;50.362;7.568;2023-03-23T04:42:38;16.80;57.00
51476;DHT22;37554;50.362;7.568;2023-03-23T04:45:06;16.80;57.00
51476;DHT22;37554;50.362;7.568;2023-03-23T04:47:34;16.80;57.10
51476;DHT22;37554;50.362;7.568;2023-03-23T04:50:14;16.80;57.10
51476;DHT22;37554;50.362;7.568;2023-03-23T04:52:40;16.80;57.20
51476;DHT22;37554;50.362;7.568;2023-03-23T04:55:11;16.80;57.30
51476;DHT22;37554;50.362;7.568;2023-03-23T04:57:37;16.80;57.40
51476;DHT22;37554;50.362;7.568;2023-03-23T05:00:04;16.80;57.50
51476;DHT22;37554;50.362;7.568;2023-03-23T05:02:37;16.80;58.20
51476;DHT22;37554;50.362;7.568;2023-03-23T05:05:08;16.80;57.60
51476;DHT22;37554;50.362;7.568;2023-03-23T05:07:37;16.80;57.60
51476;DHT22;37554;50.362;7.568;2023-03-23T05:10:03;16.80;57.70
51476;DHT22;37554;50.362;7.568;2023-03-23T05:12:29;16.80;57.70
51476;DHT22;37554;50.362;7.568;2023-03-23T05:14:55;16.80;57.80
51476;DHT22;37554;50.362;7.568;2023-03-23T05:17:20;16.80;57.90
51476;DHT22;37554;50.362;7.568;2023-03-23T05:19:50;16.80;58.00
51476;DHT22;37554;50.362;7.568;2023-03-23T05:22:16;16.80;58.00
51476;DHT22;37554;50.362;7.568;2023-03-23T05:24:42;16.80;58.10
51476;DHT22;37554;50.362;7.568;2023-03-23T05:27:09;16.80;58.20
51476;DHT22;37554;50.362;7.568;2023-03-23T05:29:35;16.80;58.20
51476;DHT22;37554;50.362;7.568;2023-03-23T05:32:04;16.80;58.30
51476;DHT22;37554;50.362;7.568;2023-03-23T05:34:31;16.80;58.30
51476;DHT22;37554;50.362;7.568;2023-03-23T05:37:03;16.80;58.30
51476;DHT22;37554;50.362;7.568;2023-03-23T05:39:30;16.80;58.40
51476;DHT22;37554;50.362;7.568;2023-03-23T05:41:56;16.70;58.40
51476;DHT22;37554;50.362;7.568;2023-03-23T05:44:22;16.70;58.40
51476;DHT22;37554;50.362;7.568;2023-03-23T05:46:49;16.80;58.50
51476;DHT22;37554;50.362;7.568;2023-03-23T05:49:16;16.70;58.50
51476;DHT22;37554;50.362;7.568;2023-03-23T05:51:45;16.70;58.40
51476;DHT22;37554;50.362;7.568;2023-03-23T05:54:15;16.70;58.40
51476;DHT22;37554;50.362;7.568;2023-03-23T05:56:42;16.80;58.50
51476;DHT22;37554;50.362;7.568;2023-03-23T05:59:08;16.80;58.50
51476;DHT22;37554;50.362;7.568;2023-03-23T06:01:35;16.70;58.50
51476;DHT22;37554;50.362;7.568;2023-03-23T06:04:01;16.70;58.40
51476;DHT22;37554;50.362;7.568;2023-03-23T06:06:28;16.70;58.40
51476;DHT22;37554;50.362;7.568;2023-03-23T06:08:58;16.80;58.50
51476;DHT22;37554;50.362;7.568;2023-03-23T06:11:24;16.80;58.50
51476;DHT22;37554;50.362;7.568;2023-03-23T06:13:52;16.80;58.50
51476;DHT22;37554;50.362;7.568;2023-03-23T06:16:18;16.80;58.40
51476;DHT22;37554;50.362;7.568;2023-03-23T06:18:44;16.80;58.30
51476;DHT22;37554;50.362;7.568;2023-03-23T06:21:11;16.80;58.30
51476;DHT22;37554;50.362;7.568;2023-03-23T06:23:37;16.80;58.30
51476;DHT22;37554;50.362;7.568;2023-03-23T06:26:06;16.80;58.30
51476;DHT22;37554;50.362;7.568;2023-03-23T06:28:32;16.80;58.30
51476;DHT22;37554;50.362;7.568;2023-03-23T06:31:03;16.80;58.20
51476;DHT22;37554;50.362;7.568;2023-03-23T06:33:32;16.80;58.20
51476;DHT22;37554;50.362;7.568;2023-03-23T06:35:57;16.90;58.30
51476;DHT22;37554;50.362;7.568;2023-03-23T06:38:24;16.90;58.20
51476;DHT22;37554;50.362;7.568;2023-03-23T06:40:52;16.90;58.20
51476;DHT22;37554;50.362;7.568;2023-03-23T06:43:18;16.90;58.20
51476;DHT22;37554;50.362;7.568;2023-03-23T06:45:44;16.90;58.10
51476;DHT22;37554;50.362;7.568;2023-03-23T06:48:10;16.90;58.10
51476;DHT22;37554;50.362;7.568;2023-03-23T06:50:35;16.90;58.00
51476;DHT22;37554;50.362;7.568;2023-03-23T06:53:01;16.90;58.00
51476;DHT22;37554;50.362;7.568;2023-03-23T06:55:27;17.00;57.90
51476;DHT22;37554;50.362;7.568;2023-03-23T06:57:52;17.00;57.90
51476;DHT22;37554;50.362;7.568;2023-03-23T07:00:18;17.00;57.80
51476;DHT22;37554;50.362;7.568;2023-03-23T07:02:44;17.00;57.70
51476;DHT22;37554;50.362;7.568;2023-03-23T07:05:11;17.00;57.70
51476;DHT22;37554;50.362;7.568;2023-03-23T07:07:37;17.00;57.70
51476;DHT22;37554;50.362;7.568;2023-03-23T07:10:05;17.00;57.70
51476;DHT22;37554;50.362;7.568;2023-03-23T07:12:34;17.10;57.60
51476;DHT22;37554;50.362;7.568;2023-03-23T07:15:04;17.00;57.50
51476;DHT22;37554;50.362;7.568;2023-03-23T07:17:31;16.90;57.60
51476;DHT22;37554;50.362;7.568;2023-03-23T07:20:00;16.90;57.70
51476;DHT22;37554;50.362;7.568;2023-03-23T07:22:31;16.80;57.80
51476;DHT22;37554;50.362;7.568;2023-03-23T07:25:07;16.70;58.00
51476;DHT22;37554;50.362;7.568;2023-03-23T07:27:33;16.80;58.00
51476;DHT22;37554;50.362;7.568;2023-03-23T07:30:05;16.90;58.00
51476;DHT22;37554;50.362;7.568;2023-03-23T07:32:31;17.00;57.90
51476;DHT22;37554;50.362;7.568;2023-03-23T07:34:56;17.00;57.80
51476;DHT22;37554;50.362;7.568;2023-03-23T07:37:23;17.10;57.80
51476;DHT22;37554;50.362;7.568;2023-03-23T07:39:57;17.10;57.70
51476;DHT22;37554;50.362;7.568;2023-03-23T07:42:40;17.10;57.80
51476;DHT22;37554;50.362;7.568;2023-03-23T07:45:13;17.10;57.70
51476;DHT22;37554;50.362;7.568;2023-03-23T07:47:40;17.20;57.70
51476;DHT22;37554;50.362;7.568;2023-03-23T07:50:06;17.20;57.70
51476;DHT22;37554;50.362;7.568;2023-03-23T07:52:33;17.20;57.70
51476;DHT22;37554;50.362;7.568;2023-03-23T07:55:00;17.20;57.60
51476;DHT22;37554;50.362;7.568;2023-03-23T07:57:28;17.30;57.60
51476;DHT22;37554;50.362;7.568;2023-03-23T07:59:54;17.40;57.40
51476;DHT22;37554;50.362;7.568;2023-03-23T08:02:20;17.50;57.30
51476;DHT22;37554;50.362;7.568;2023-03-23T08:04:46;17.60;57.20
51476;DHT22;37554;50.362;7.568;2023-03-23T08:07:13;17.60;57.10
51476;DHT22;37554;50.362;7.568;2023-03-23T08:09:39;17.60;57.00
51476;DHT22;37554;50.362;7.568;2023-03-23T08:12:05;17.70;57.00
51476;DHT22;37554;50.362;7.568;2023-03-23T08:14:31;17.70;56.90
51476;DHT22;37554;50.362;7.568;2023-03-23T08:16:58;17.70;56.90
51476;DHT22;37554;50.362;7.568;2023-03-23T08:19:24;17.80;56.90
51476;DHT22;37554;50.362;7.568;2023-03-23T08:21:50;17.80;56.80
51476;DHT22;37554;50.362;7.568;2023-03-23T08:24:16;17.80;56.70
51476;DHT22;37554;50.362;7.568;2023-03-23T08:26:42;17.90;56.70
51476;DHT22;37554;50.362;7.568;2023-03-23T08:29:08;17.90;56.50
51476;DHT22;37554;50.362;7.568;2023-03-23T08:31:34;18.00;56.30
51476;DHT22;37554;50.362;7.568;2023-03-23T08:34:02;18.00;56.20
51476;DHT22;37554;50.362;7.568;2023-03-23T08:36:31;18.10;56.10
51476;DHT22;37554;50.362;7.568;2023-03-23T08:39:00;18.20;56.00
51476;DHT22;37554;50.362;7.568;2023-03-23T08:41:29;18.10;55.40
51476;DHT22;37554;50.362;7.568;2023-03-23T08:43:55;17.90;55.40
51476;DHT22;37554;50.362;7.568;2023-03-23T08:46:20;17.80;55.40
51476;DHT22;37554;50.362;7.568;2023-03-23T08:48:49;17.80;56.00
51476;DHT22;37554;50.362;7.568;2023-03-23T08:51:14;17.80;55.40
51476;DHT22;37554;50.362;7.568;2023-03-23T08:53:44;17.80;55.40
51476;DHT22;37554;50.362;7.568;2023-03-23T08:56:18;18.00;55.30
51476;DHT22;37554;50.362;7.568;2023-03-23T08:58:50;18.20;55.00
51476;DHT22;37554;50.362;7.568;2023-03-23T09:01:16;18.30;54.70
51476;DHT22;37554;50.362;7.568;2023-03-23T09:04:00;18.40;54.60
51476;DHT22;37554;50.362;7.568;2023-03-23T09:06:26;18.40;54.40
51476;DHT22;37554;50.362;7.568;2023-03-23T09:09:00;18.40;54.40
51476;DHT22;37554;50.362;7.568;2023-03-23T09:11:28;18.40;54.40
51476;DHT22;37554;50.362;7.568;2023-03-23T09:13:53;18.50;54.40
51476;DHT22;37554;50.362;7.568;2023-03-23T09:16:22;18.50;54.50
51476;DHT22;37554;50.362;7.568;2023-03-23T09:18:48;18.50;54.40
51476;DHT22;37554;50.362;7.568;2023-03-23T09:21:20;18.60;54.40
51476;DHT22;37554;50.362;7.568;2023-03-23T09:24:05;18.60;54.20
51476;DHT22;37554;50.362;7.568;2023-03-23T09:26:31;18.70;54.10
51476;DHT22;37554;50.362;7.568;2023-03-23T09:29:09;18.70;54.00
51476;DHT22;37554;50.362;7.568;2023-03-23T09:31:56;18.80;53.80
51476;DHT22;37554;50.362;7.568;2023-03-23T09:34:33;18.80;53.80
51476;DHT22;37554;50.362;7.568;2023-03-23T09:37:04;18.70;53.90
51476;DHT22;37554;50.362;7.568;2023-03-23T09:39:33;18.60;54.00
51476;DHT22;37554;50.362;7.568;2023-03-23T09:42:54;18.60;54.10
51476;DHT22;37554;50.362;7.568;2023-03-23T09:50:28;18.60;54.30
51476;DHT22;37554;50.362;7.568;2023-03-23T09:53:17;18.70;54.10
51476;DHT22;37554;50.362;7.568;2023-03-23T09:55:44;18.90;53.80
51476;DHT22;37554;50.362;7.568;2023-03-23T09:58:25;19.10;53.50
51476;DHT22;37554;50.362;7.568;2023-03-23T10:03:27;19.50;52.90
51476;DHT22;37554;50.362;7.568;2023-03-23T10:05:56;19.60;52.60
51476;DHT22;37554;50.362;7.568;2023-03-23T10:08:25;19.70;52.30
51476;DHT22;37554;50.362;7.568;2023-03-23T10:14:24;19.60;52.30
51476;DHT22;37554;50.362;7.568;2023-03-23T10:17:15;19.60;53.00
51476;DHT22;37554;50.362;7.568;2023-03-23T10:23:12;19.90;52.10
51476;DHT22;37554;50.362;7.568;2023-03-23T10:25:43;20.20;51.80
51476;DHT22;37554;50.362;7.568;2023-03-23T10:28:22;20.50;51.30
51476;DHT22;37554;50.362;7.568;2023-03-23T10:30:57;20.80;50.90
51476;DHT22;37554;50.362;7.568;2023-03-23T10:33:47;20.90;50.60
51476;DHT22;37554;50.362;7.568;2023-03-23T10:36:27;20.90;50.40
51476;DHT22;37554;50.362;7.568;2023-03-23T10:41:22;20.60;50.80
51476;DHT22;37554;50.362;7.568;2023-03-23T10:43:48;20.50;51.00
51476;DHT22;37554;50.362;7.568;2023-03-23T10:49:18;20.40;51.10
51476;DHT22;37554;50.362;7.568;2023-03-23T10:51:57;20.40;51.40
51476;DHT22;37554;50.362;7.568;2023-03-23T10:54:31;20.40;51.20
51476;DHT22;37554;50.362;7.568;2023-03-23T10:56:58;20.40;51.40
51476;DHT22;37554;50.362;7.568;2023-03-23T10:59:30;20.60;51.90
51476;DHT22;37554;50.362;7.568;2023-03-23T11:02:00;21.00;51.60
51476;DHT22;37554;50.362;7.568;2023-03-23T11:04:30;21.50;50.80
51476;DHT22;37554;50.362;7.568;2023-03-23T11:07:00;21.80;50.10
51476;DHT22;37554;50.362;7.568;2023-03-23T11:09:40;22.20;49.60
51476;DHT22;37554;50.362;7.568;2023-03-23T11:12:25;22.40;49.10
51476;DHT22;37554;50.362;7.568;2023-03-23T11:14:51;22.70;48.50
51476;DHT22;37554;50.362;7.568;2023-03-23T11:17:23;22.50;48.70
51476;DHT22;37554;50.362;7.568;2023-03-23T11:19:53;22.40;48.80
51476;DHT22;37554;50.362;7.568;2023-03-23T11:22:26;22.30;48.90
51476;DHT22;37554;50.362;7.568;2023-03-23T11:24:59;22.70;48.70
51476;DHT22;37554;50.362;7.568;2023-03-23T11:27:26;23.00;47.80
51476;DHT22;37554;50.362;7.568;2023-03-23T11:32:52;23.20;46.80
51476;DHT22;37554;50.362;7.568;2023-03-23T11:35:21;23.10;47.20
51476;DHT22;37554;50.362;7.568;2023-03-23T11:37:54;22.90;47.30
51476;DHT22;37554;50.362;7.568;2023-03-23T11:40:23;22.90;47.50
51476;DHT22;37554;50.362;7.568;2023-03-23T11:42:56;22.90;47.60
51476;DHT22;37554;50.362;7.568;2023-03-23T11:45:33;23.00;47.60
51476;DHT22;37554;50.362;7.568;2023-03-23T11:50:57;23.40;46.90
51476;DHT22;37554;50.362;7.568;2023-03-23T11:53:37;23.70;46.10
51476;DHT22;37554;50.362;7.568;2023-03-23T11:56:35;24.10;45.70
51476;DHT22;37554;50.362;7.568;2023-03-23T11:59:01;24.20;45.00
51476;DHT22;37554;50.362;7.568;2023-03-23T12:04:30;24.30;45.00
51476;DHT22;37554;50.362;7.568;2023-03-23T12:15:51;24.40;45.30
51476;DHT22;37554;50.362;7.568;2023-03-23T12:21:52;24.20;45.20
51476;DHT22;37554;50.362;7.568;2023-03-23T12:24:31;24.20;45.70
51476;DHT22;37554;50.362;7.568;2023-03-23T12:30:18;24.00;45.80
51476;DHT22;37554;50.362;7.568;2023-03-23T12:33:13;24.00;45.80
51476;DHT22;37554;50.362;7.568;2023-03-23T12:38:34;24.20;45.20
51476;DHT22;37554;50.362;7.568;2023-03-23T12:41:05;23.70;43.20
51476;DHT22;37554;50.362;7.568;2023-03-23T12:53:45;23.40;44.30
51476;DHT22;37554;50.362;7.568;2023-03-23T12:56:46;23.80;44.30
51476;DHT22;37554;50.362;7.568;2023-03-23T13:04:55;25.50;42.00
51476;DHT22;37554;50.362;7.568;2023-03-23T13:07:28;25.70;41.90
51476;DHT22;37554;50.362;7.568;2023-03-23T13:10:07;25.80;41.80
51476;DHT22;37554;50.362;7.568;2023-03-23T13:12:35;25.70;41.60
51476;DHT22;37554;50.362;7.568;2023-03-23T13:17:56;25.40;41.80
51476;DHT22;37554;50.362;7.568;2023-03-23T13:28:47;24.90;42.70
51476;DHT22;37554;50.362;7.568;2023-03-23T13:31:16;24.70;43.00
51476;DHT22;37554;50.362;7.568;2023-03-23T13:33:59;24.70;43.20
51476;DHT22;37554;50.362;7.568;2023-03-23T13:36:29;24.50;43.00
51476;DHT22;37554;50.362;7.568;2023-03-23T13:38:58;24.40;43.40
51476;DHT22;37554;50.362;7.568;2023-03-23T13:41:25;24.30;43.50
51476;DHT22;37554;50.362;7.568;2023-03-23T13:43:51;24.20;43.60
51476;DHT22;37554;50.362;7.568;2023-03-23T13:49:04;24.00;43.70
51476;DHT22;37554;50.362;7.568;2023-03-23T13:51:36;24.00;43.80
51476;DHT22;37554;50.362;7.568;2023-03-23T13:56:47;23.90;43.80
51476;DHT22;37554;50.362;7.568;2023-03-23T13:59:30;23.90;44.00
51476;DHT22;37554;50.362;7.568;2023-03-23T14:05:19;24.10;43.80
51476;DHT22;37554;50.362;7.568;2023-03-23T14:10:43;24.00;43.50
51476;DHT22;37554;50.362;7.568;2023-03-23T14:16:02;23.90;43.80
51476;DHT22;37554;50.362;7.568;2023-03-23T14:18:37;23.90;44.00
51476;DHT22;37554;50.362;7.568;2023-03-23T14:21:04;23.80;43.50
51476;DHT22;37554;50.362;7.568;2023-03-23T14:23:32;23.90;44.10
51476;DHT22;37554;50.362;7.568;2023-03-23T14:26:05;24.10;43.90
51476;DHT22;37554;50.362;7.568;2023-03-23T14:28:38;24.30;43.70
51476;DHT22;37554;50.362;7.568;2023-03-23T14:31:05;24.40;43.30
51476;DHT22;37554;50.362;7.568;2023-03-23T14:33:31;24.50;43.20
51476;DHT22;37554;50.362;7.568;2023-03-23T14:35:58;24.40;43.10
51476;DHT22;37554;50.362;7.568;2023-03-23T14:38:25;24.20;42.90
51476;DHT22;37554;50.362;7.568;2023-03-23T14:41:03;23.90;43.30
51476;DHT22;37554;50.362;7.568;2023-03-23T14:43:29;23.80;43.40
51476;DHT22;37554;50.362;7.568;2023-03-23T14:45:59;23.70;43.40
51476;DHT22;37554;50.362;7.568;2023-03-23T14:48:26;23.80;43.40
51476;DHT22;37554;50.362;7.568;2023-03-23T14:50:59;23.90;43.00
51476;DHT22;37554;50.362;7.568;2023-03-23T14:53:39;23.90;42.50
51476;DHT22;37554;50.362;7.568;2023-03-23T14:56:13;23.90;42.10
51476;DHT22;37554;50.362;7.568;2023-03-23T14:58:47;23.90;42.10
51476;DHT22;37554;50.362;7.568;2023-03-23T15:01:23;23.90;42.20
51476;DHT22;37554;50.362;7.568;2023-03-23T15:06:21;23.70;42.20
51476;DHT22;37554;50.362;7.568;2023-03-23T15:08:49;23.70;42.20
51476;DHT22;37554;50.362;7.568;2023-03-23T15:13:48;23.60;42.10
51476;DHT22;37554;50.362;7.568;2023-03-23T15:16:19;23.50;42.20
51476;DHT22;37554;50.362;7.568;2023-03-23T15:19:32;23.40;42.30
51476;DHT22;37554;50.362;7.568;2023-03-23T15:21:57;23.40;42.00
51476;DHT22;37554;50.362;7.568;2023-03-23T15:24:36;23.30;42.40
51476;DHT22;37554;50.362;7.568;2023-03-23T15:27:11;23.20;42.30
51476;DHT22;37554;50.362;7.568;2023-03-23T15:29:56;23.10;42.40
51476;DHT22;37554;50.362;7.568;2023-03-23T15:32:38;23.10;42.50
51476;DHT22;37554;50.362;7.568;2023-03-23T15:35:12;23.00;42.80
51476;DHT22;37554;50.362;7.568;2023-03-23T15:37:43;23.00;43.00
51476;DHT22;37554;50.362;7.568;2023-03-23T15:40:21;23.00;43.00
51476;DHT22;37554;50.362;7.568;2023-03-23T15:42:47;22.90;42.80
51476;DHT22;37554;50.362;7.568;2023-03-23T15:50:20;22.70;43.10
51476;DHT22;37554;50.362;7.568;2023-03-23T15:52:57;22.70;43.20
51476;DHT22;37554;50.362;7.568;2023-03-23T15:55:35;22.60;43.40
51476;DHT22;37554;50.362;7.568;2023-03-23T15:58:08;22.50;43.40
51476;DHT22;37554;50.362;7.568;2023-03-23T16:00:34;22.50;43.50
51476;DHT22;37554;50.362;7.568;2023-03-23T16:03:01;22.50;43.50
51476;DHT22;37554;50.362;7.568;2023-03-23T16:05:28;22.40;43.60
51476;DHT22;37554;50.362;7.568;2023-03-23T16:07:54;22.40;43.50
51476;DHT22;37554;50.362;7.568;2023-03-23T16:10:22;22.30;43.50
51476;DHT22;37554;50.362;7.568;2023-03-23T16:12:48;22.30;43.50
51476;DHT22;37554;50.362;7.568;2023-03-23T16:15:15;22.20;43.70
51476;DHT22;37554;50.362;7.568;2023-03-23T16:17:40;22.20;43.90
51476;DHT22;37554;50.362;7.568;2023-03-23T16:20:19;22.10;43.80
51476;DHT22;37554;50.362;7.568;2023-03-23T16:22:45;22.10;44.10
51476;DHT22;37554;50.362;7.568;2023-03-23T16:25:12;22.00;44.20
51476;DHT22;37554;50.362;7.568;2023-03-23T16:27:38;22.00;44.10
51476;DHT22;37554;50.362;7.568;2023-03-23T16:30:24;21.90;44.10
51476;DHT22;37554;50.362;7.568;2023-03-23T16:32:50;21.90;44.00
51476;DHT22;37554;50.362;7.568;2023-03-23T16:35:17;21.80;44.10
51476;DHT22;37554;50.362;7.568;2023-03-23T16:37:54;21.80;44.30
51476;DHT22;37554;50.362;7.568;2023-03-23T16:40:21;21.70;44.30
51476;DHT22;37554;50.362;7.568;2023-03-23T16:42:47;21.70;44.50
51476;DHT22;37554;50.362;7.568;2023-03-23T16:45:14;21.60;44.70
51476;DHT22;37554;50.362;7.568;2023-03-23T16:47:40;21.70;44.80
51476;DHT22;37554;50.362;7.568;2023-03-23T16:50:09;21.60;44.80
51476;DHT22;37554;50.362;7.568;2023-03-23T16:52:43;21.60;44.80
51476;DHT22;37554;50.362;7.568;2023-03-23T16:55:10;21.60;44.90
51476;DHT22;37554;50.362;7.568;2023-03-23T16:57:37;21.50;44.90
51476;DHT22;37554;50.362;7.568;2023-03-23T17:00:07;21.50;45.20
51476;DHT22;37554;50.362;7.568;2023-03-23T17:02:34;21.50;45.10
51476;DHT22;37554;50.362;7.568;2023-03-23T17:05:00;21.30;45.00
51476;DHT22;37554;50.362;7.568;2023-03-23T17:07:27;21.30;45.30
51476;DHT22;37554;50.362;7.568;2023-03-23T17:09:53;21.30;45.60
51476;DHT22;37554;50.362;7.568;2023-03-23T17:12:19;21.40;45.60
51476;DHT22;37554;50.362;7.568;2023-03-23T17:14:45;21.40;45.70
51476;DHT22;37554;50.362;7.568;2023-03-23T17:17:12;21.40;45.70
51476;DHT22;37554;50.362;7.568;2023-03-23T17:19:38;21.40;45.80
51476;DHT22;37554;50.362;7.568;2023-03-23T17:22:04;21.40;45.80
51476;DHT22;37554;50.362;7.568;2023-03-23T17:24:29;21.40;46.00
51476;DHT22;37554;50.362;7.568;2023-03-23T17:26:55;21.40;46.10
51476;DHT22;37554;50.362;7.568;2023-03-23T17:29:21;21.40;46.20
51476;DHT22;37554;50.362;7.568;2023-03-23T17:31:48;21.30;46.30
51476;DHT22;37554;50.362;7.568;2023-03-23T17:34:14;21.30;46.40
51476;DHT22;37554;50.362;7.568;2023-03-23T17:36:40;21.30;46.70
51476;DHT22;37554;50.362;7.568;2023-03-23T17:39:06;21.30;46.90
51476;DHT22;37554;50.362;7.568;2023-03-23T17:41:31;21.30;47.10
51476;DHT22;37554;50.362;7.568;2023-03-23T17:43:57;21.30;47.30
51476;DHT22;37554;50.362;7.568;2023-03-23T17:46:23;21.30;47.50
51476;DHT22;37554;50.362;7.568;2023-03-23T17:48:49;21.20;47.60